Time;durP1;ratioP1;P1;durP2;ratioP2;P2;SDS_P1;SDS_P2;PMS_P1;PMS_P2;Temp;Humidity;BMP_temperature;BMP_pressure;BME280_temperature;BME280_humidity;BME280_pressure;Samples;Min_cycle;Max_cycle;Signal;HPM_P1;HPM_P2
2022/03/17 00:01:48;;;;;;;15.37;12.17;;;;;;;;;;5017801;28;20179;-67
2022/03/17 00:04:14;;;;;;;21.70;13.67;;;;;;;;;;5007758;28;20687;-67
2022/03/17 00:06:39;;;;;;;16.53;12.27;;;;;;;;;;5007678;28;20179;-66
2022/03/17 00:09:06;;;;;;;17.10;13.37;;;;;;;;;;5009068;28;20589;-67
2022/03/17 00:11:32;;;;;;;14.50;12.57;;;;;;;;;;5021457;28;20202;-66
2022/03/17 00:13:57;;;;;;;18.17;12.67;;;;;;;;;;5014379;28;20539;-66
2022/03/17 00:16:22;;;;;;;17.13;12.80;;;;;;;;;;5015835;28;20265;-65
2022/03/17 00:18:47;;;;;;;16.80;12.90;;;;;;;;;;5017624;28;20199;-66
2022/03/17 00:21:12;;;;;;;16.73;12.70;;;;;;;;;;5016638;28;20791;-67
2022/03/17 00:23:37;;;;;;;17.73;13.33;;;;;;;;;;5006678;28;20179;-65
2022/03/17 00:26:03;;;;;;;16.20;13.17;;;;;;;;;;5009297;28;20221;-66
2022/03/17 00:28:28;;;;;;;18.37;12.53;;;;;;;;;;5018972;28;20205;-66
2022/03/17 00:30:53;;;;;;;17.40;12.80;;;;;;;;;;5013035;28;20680;-67
2022/03/17 00:33:18;;;;;;;16.50;12.83;;;;;;;;;;5012854;28;20179;-67
2022/03/17 00:35:43;;;;;;;18.10;14.23;;;;;;;;;;5013236;28;20664;-67
2022/03/17 00:38:10;;;;;;;20.87;13.97;;;;;;;;;;5016976;28;20274;-66
2022/03/17 00:40:36;;;;;;;16.80;12.57;;;;;;;;;;5003595;28;20206;-67
2022/03/17 00:43:03;;;;;;;18.23;13.53;;;;;;;;;;5008715;28;20209;-67
2022/03/17 00:45:28;;;;;;;17.80;13.50;;;;;;;;;;5012633;28;20626;-67
2022/03/17 00:47:54;;;;;;;18.67;13.73;;;;;;;;;;5007712;28;20191;-67
2022/03/17 00:50:19;;;;;;;18.53;14.30;;;;;;;;;;5012957;28;20203;-67
2022/03/17 00:52:44;;;;;;;18.67;14.40;;;;;;;;;;5003682;28;20183;-67
2022/03/17 00:55:09;;;;;;;16.77;13.83;;;;;;;;;;5003568;28;20248;-66
2022/03/17 00:57:36;;;;;;;18.47;14.13;;;;;;;;;;4990269;28;20199;-67
2022/03/17 01:00:01;;;;;;;19.70;14.53;;;;;;;;;;4982586;28;20586;-67
2022/03/17 01:02:27;;;;;;;19.37;13.80;;;;;;;;;;4970034;28;20214;-65
2022/03/17 01:04:52;;;;;;;21.13;14.10;;;;;;;;;;5004327;28;20186;-67
2022/03/17 01:07:17;;;;;;;22.07;13.43;;;;;;;;;;5010677;28;20187;-66
2022/03/17 01:09:42;;;;;;;18.10;13.70;;;;;;;;;;5023484;28;20200;-67
2022/03/17 01:12:07;;;;;;;17.10;14.03;;;;;;;;;;5016104;28;20242;-66
2022/03/17 01:14:32;;;;;;;17.87;14.70;;;;;;;;;;5009777;28;20171;-66
2022/03/17 01:16:58;;;;;;;17.33;13.90;;;;;;;;;;5010314;28;20698;-67
2022/03/17 01:19:23;;;;;;;22.30;14.43;;;;;;;;;;5008198;28;20199;-68
2022/03/17 01:21:49;;;;;;;18.23;14.20;;;;;;;;;;5008939;28;20186;-67
2022/03/17 01:24:14;;;;;;;20.80;13.70;;;;;;;;;;5010344;28;20194;-67
2022/03/17 01:26:40;;;;;;;18.50;14.00;;;;;;;;;;5010464;28;20278;-67
2022/03/17 01:29:05;;;;;;;21.20;14.63;;;;;;;;;;5009572;28;20213;-66
2022/03/17 01:31:30;;;;;;;18.40;13.33;;;;;;;;;;5009675;28;20206;-67
2022/03/17 01:33:56;;;;;;;20.50;14.13;;;;;;;;;;4993314;28;20179;-67
2022/03/17 01:36:21;;;;;;;20.60;14.67;;;;;;;;;;5004983;28;20249;-66
2022/03/17 01:38:46;;;;;;;20.23;14.73;;;;;;;;;;5001703;28;20191;-67
2022/03/17 01:41:11;;;;;;;24.57;15.20;;;;;;;;;;5007991;28;20534;-67
2022/03/17 01:43:36;;;;;;;22.63;14.57;;;;;;;;;;5010779;28;20200;-66
2022/03/17 01:46:02;;;;;;;20.87;14.73;;;;;;;;;;5009614;28;20178;-67
2022/03/17 01:48:27;;;;;;;22.00;15.53;;;;;;;;;;5010438;28;20217;-67
2022/03/17 01:50:53;;;;;;;19.77;15.00;;;;;;;;;;5009773;28;20292;-67
2022/03/17 01:53:18;;;;;;;19.97;14.90;;;;;;;;;;5008027;28;20615;-67
2022/03/17 01:55:43;;;;;;;19.57;15.67;;;;;;;;;;5009925;28;20206;-67
2022/03/17 01:58:09;;;;;;;20.67;16.20;;;;;;;;;;5009045;28;20284;-67
2022/03/17 02:00:34;;;;;;;18.87;14.33;;;;;;;;;;5009180;28;20632;-67
2022/03/17 02:03:00;;;;;;;23.53;16.37;;;;;;;;;;5008279;28;20190;-67
2022/03/17 02:05:26;;;;;;;20.77;16.43;;;;;;;;;;5004546;28;20176;-66
2022/03/17 02:07:52;;;;;;;24.73;18.20;;;;;;;;;;5004964;28;20675;-67
2022/03/17 02:10:18;;;;;;;24.47;17.40;;;;;;;;;;5006802;28;20194;-68
2022/03/17 02:15:28;;;;;;;26.30;18.57;;;;;;;;;;5009486;28;20214;-67
2022/03/17 02:17:53;;;;;;;29.67;19.80;;;;;;;;;;5009930;28;20183;-67
2022/03/17 02:20:18;;;;;;;30.80;20.30;;;;;;;;;;5009812;28;20230;-66
2022/03/17 02:22:47;;;;;;;27.07;20.53;;;;;;;;;;5006916;28;20191;-66
2022/03/17 02:27:57;;;;;;;30.30;20.93;;;;;;;;;;5009408;28;20241;-66
2022/03/17 02:30:23;;;;;;;30.83;20.70;;;;;;;;;;5037899;22;20233;-69
2022/03/17 02:32:49;;;;;;;32.40;21.50;;;;;;;;;;5029719;28;20186;-69
2022/03/17 02:35:22;;;;;;;28.03;20.80;;;;;;;;;;5030015;28;20181;-70
2022/03/17 02:37:47;;;;;;;26.27;18.97;;;;;;;;;;5019567;28;20190;-69
2022/03/17 02:40:13;;;;;;;26.73;17.53;;;;;;;;;;5020699;28;20588;-69
2022/03/17 02:42:38;;;;;;;24.13;17.37;;;;;;;;;;5027598;28;20186;-70
2022/03/17 02:45:04;;;;;;;20.90;14.73;;;;;;;;;;5029347;28;20182;-69
2022/03/17 02:47:29;;;;;;;13.13;10.87;;;;;;;;;;5024549;28;20197;-70
2022/03/17 02:49:55;;;;;;;10.47;7.63;;;;;;;;;;5027930;28;20213;-69
2022/03/17 02:52:21;;;;;;;7.73;6.23;;;;;;;;;;5028147;28;20218;-70
2022/03/17 02:54:46;;;;;;;6.70;5.27;;;;;;;;;;5025354;28;20186;-69
2022/03/17 02:57:11;;;;;;;6.90;5.30;;;;;;;;;;5028892;28;20245;-69
2022/03/17 02:59:36;;;;;;;8.60;4.60;;;;;;;;;;5027964;28;20253;-69
2022/03/17 03:02:04;;;;;;;7.07;4.23;;;;;;;;;;5029089;28;20186;-69
2022/03/17 03:04:29;;;;;;;8.67;4.00;;;;;;;;;;5027934;28;20198;-69
2022/03/17 03:06:54;;;;;;;7.00;5.03;;;;;;;;;;5024521;28;20174;-69
2022/03/17 03:09:20;;;;;;;6.53;4.23;;;;;;;;;;5028502;28;20206;-69
2022/03/17 03:11:45;;;;;;;7.93;4.47;;;;;;;;;;5026099;28;20210;-69
2022/03/17 03:14:10;;;;;;;7.40;4.57;;;;;;;;;;5029486;28;20186;-69
2022/03/17 03:16:35;;;;;;;7.40;4.93;;;;;;;;;;5028742;28;20178;-69
2022/03/17 03:19:01;;;;;;;9.87;5.30;;;;;;;;;;5024106;28;20214;-69
2022/03/17 03:21:26;;;;;;;9.63;5.17;;;;;;;;;;5028381;28;20212;-69
2022/03/17 03:23:51;;;;;;;7.13;4.77;;;;;;;;;;5028326;28;20217;-69
2022/03/17 03:26:16;;;;;;;7.93;4.67;;;;;;;;;;5029088;28;20222;-70
2022/03/17 03:28:41;;;;;;;10.83;5.17;;;;;;;;;;5028497;28;20205;-70
2022/03/17 03:31:08;;;;;;;6.67;5.37;;;;;;;;;;5028353;28;20218;-69
2022/03/17 03:33:33;;;;;;;7.57;5.60;;;;;;;;;;5030273;28;20179;-70
2022/03/17 03:38:42;;;;;;;8.70;6.60;;;;;;;;;;5025131;28;20201;-70
2022/03/17 03:41:07;;;;;;;6.93;5.67;;;;;;;;;;5023728;28;20187;-70
2022/03/17 03:43:33;;;;;;;12.17;7.47;;;;;;;;;;5030401;28;20264;-70
2022/03/17 03:45:58;;;;;;;9.97;7.47;;;;;;;;;;5029635;28;20189;-70
2022/03/17 03:48:23;;;;;;;13.23;8.70;;;;;;;;;;5032399;28;20271;-67
2022/03/17 03:50:48;;;;;;;11.13;9.10;;;;;;;;;;5031736;28;20202;-70
2022/03/17 03:53:13;;;;;;;13.33;8.90;;;;;;;;;;5031653;28;20202;-71
2022/03/17 03:55:38;;;;;;;13.53;8.13;;;;;;;;;;5025757;28;20269;-70
2022/03/17 03:58:04;;;;;;;12.30;9.87;;;;;;;;;;5024305;28;20528;-71
2022/03/17 04:02:55;;;;;;;20.52;11.02;;;;;;;;;;5033367;28;20193;-70
2022/03/17 04:05:24;;;;;;;19.90;10.67;;;;;;;;;;5032344;28;20476;-70
2022/03/17 04:07:50;;;;;;;18.20;11.80;;;;;;;;;;5028195;28;20186;-70
2022/03/17 04:10:15;;;;;;;17.60;10.63;;;;;;;;;;5030265;28;20279;-70
2022/03/17 04:12:40;;;;;;;16.77;11.07;;;;;;;;;;5032326;28;20257;-70
2022/03/17 04:15:06;;;;;;;19.33;9.90;;;;;;;;;;5032672;28;20179;-69
2022/03/17 04:17:31;;;;;;;18.43;9.33;;;;;;;;;;5032335;28;20166;-70
2022/03/17 04:19:56;;;;;;;16.87;7.87;;;;;;;;;;5030655;28;20194;-70
2022/03/17 04:22:21;;;;;;;17.10;7.00;;;;;;;;;;5032497;28;20194;-70
2022/03/17 04:24:46;;;;;;;13.30;5.83;;;;;;;;;;5032863;28;20212;-69
2022/03/17 04:27:12;;;;;;;15.77;5.47;;;;;;;;;;5031276;28;20209;-70
2022/03/17 04:29:37;;;;;;;12.43;4.63;;;;;;;;;;5030768;28;20264;-70
2022/03/17 04:32:02;;;;;;;18.87;4.30;;;;;;;;;;5032156;28;20256;-69
2022/03/17 04:34:28;;;;;;;15.27;3.90;;;;;;;;;;5031342;28;20178;-69
2022/03/17 04:36:53;;;;;;;7.27;3.67;;;;;;;;;;5027888;28;20179;-70
2022/03/17 04:39:18;;;;;;;11.70;3.10;;;;;;;;;;5031288;28;20296;-70
2022/03/17 04:41:43;;;;;;;12.67;3.17;;;;;;;;;;5028044;28;20178;-70
2022/03/17 04:44:09;;;;;;;10.40;3.50;;;;;;;;;;5031801;28;20485;-70
2022/03/17 04:46:34;;;;;;;12.13;3.70;;;;;;;;;;5031685;28;20198;-70
2022/03/17 04:48:59;;;;;;;8.80;3.47;;;;;;;;;;5031152;28;21005;-70
2022/03/17 04:51:25;;;;;;;14.17;3.67;;;;;;;;;;5030106;28;20203;-70
2022/03/17 04:53:50;;;;;;;11.93;3.23;;;;;;;;;;5026736;28;20236;-70
2022/03/17 04:56:19;;;;;;;13.50;3.60;;;;;;;;;;5026615;28;20179;-69
2022/03/17 04:58:44;;;;;;;11.73;3.40;;;;;;;;;;5026621;28;20198;-69
2022/03/17 05:01:10;;;;;;;7.37;2.83;;;;;;;;;;5028896;28;20588;-70
2022/03/17 05:03:36;;;;;;;7.10;2.60;;;;;;;;;;5030650;28;20194;-70
2022/03/17 05:06:03;;;;;;;10.07;2.97;;;;;;;;;;5031484;28;20195;-69
2022/03/17 05:08:28;;;;;;;9.03;3.10;;;;;;;;;;5030924;28;20188;-70
2022/03/17 05:10:53;;;;;;;10.13;2.70;;;;;;;;;;5031076;28;20659;-68
2022/03/17 05:13:19;;;;;;;5.80;2.30;;;;;;;;;;5030777;28;20213;-68
2022/03/17 05:15:46;;;;;;;11.17;2.73;;;;;;;;;;5031530;28;20170;-68
2022/03/17 05:18:11;;;;;;;8.43;2.53;;;;;;;;;;5030458;28;20182;-68
2022/03/17 05:20:37;;;;;;;9.57;2.50;;;;;;;;;;5028710;28;20568;-68
2022/03/17 05:23:08;;;;;;;8.17;2.17;;;;;;;;;;5030541;28;20632;-68
2022/03/17 05:25:33;;;;;;;7.30;2.23;;;;;;;;;;5030209;28;20652;-68
2022/03/17 05:27:59;;;;;;;4.80;2.20;;;;;;;;;;5028616;28;20232;-68
2022/03/17 05:30:25;;;;;;;8.80;2.27;;;;;;;;;;5033060;28;20214;-69
2022/03/17 05:32:50;;;;;;;8.03;2.73;;;;;;;;;;5028093;28;20181;-69
2022/03/17 05:35:16;;;;;;;7.27;2.37;;;;;;;;;;5032018;28;20178;-68
2022/03/17 05:37:42;;;;;;;11.80;2.63;;;;;;;;;;5030140;28;20628;-68
2022/03/17 05:40:14;;;;;;;12.73;2.70;;;;;;;;;;5029529;28;20568;-68
2022/03/17 05:42:40;;;;;;;12.83;2.87;;;;;;;;;;5028452;28;20784;-68
2022/03/17 05:45:05;;;;;;;13.57;3.43;;;;;;;;;;5031347;28;20257;-68
2022/03/17 05:47:38;;;;;;;8.53;2.40;;;;;;;;;;5028806;28;20208;-68
2022/03/17 05:50:04;;;;;;;14.50;2.20;;;;;;;;;;5032005;28;20686;-68
2022/03/17 05:52:30;;;;;;;11.50;3.60;;;;;;;;;;5029997;28;20203;-70
2022/03/17 05:54:55;;;;;;;12.97;2.80;;;;;;;;;;5037129;28;20234;-68
2022/03/17 05:57:20;;;;;;;9.23;3.23;;;;;;;;;;5028635;28;20553;-68
2022/03/17 05:59:45;;;;;;;15.03;2.80;;;;;;;;;;5024901;28;20209;-68
2022/03/17 06:02:11;;;;;;;13.17;2.33;;;;;;;;;;5018585;28;20180;-68
2022/03/17 06:04:38;;;;;;;17.13;3.87;;;;;;;;;;5028453;28;20171;-68
2022/03/17 06:07:04;;;;;;;9.80;2.57;;;;;;;;;;5027550;28;20206;-68
2022/03/17 06:09:29;;;;;;;8.17;2.37;;;;;;;;;;5029357;28;20296;-68
2022/03/17 06:11:55;;;;;;;17.60;3.43;;;;;;;;;;5026843;28;20209;-68
2022/03/17 06:14:20;;;;;;;10.30;2.43;;;;;;;;;;5028089;28;20263;-68
2022/03/17 06:16:45;;;;;;;9.30;2.70;;;;;;;;;;5029309;28;20209;-68
2022/03/17 06:19:10;;;;;;;10.33;2.83;;;;;;;;;;5019772;28;20198;-68
2022/03/17 06:21:36;;;;;;;13.07;2.13;;;;;;;;;;5025044;28;20704;-68
2022/03/17 06:24:01;;;;;;;9.47;1.93;;;;;;;;;;5031109;28;20216;-68
2022/03/17 06:26:26;;;;;;;7.90;1.80;;;;;;;;;;5027161;28;20664;-70
2022/03/17 06:28:51;;;;;;;14.20;3.30;;;;;;;;;;5030010;28;20202;-68
2022/03/17 06:31:17;;;;;;;14.00;2.20;;;;;;;;;;5027506;28;20304;-70
2022/03/17 06:33:44;;;;;;;7.93;2.30;;;;;;;;;;5027819;28;20706;-70
2022/03/17 06:36:09;;;;;;;8.93;2.73;;;;;;;;;;5020148;28;20273;-69
2022/03/17 06:38:35;;;;;;;7.63;2.10;;;;;;;;;;5026915;28;20638;-69
2022/03/17 06:41:00;;;;;;;6.10;1.90;;;;;;;;;;5037091;28;20192;-69
2022/03/17 06:43:25;;;;;;;8.90;3.20;;;;;;;;;;5037083;28;20616;-67
2022/03/17 06:45:50;;;;;;;9.73;2.00;;;;;;;;;;5022819;28;20185;-70
2022/03/17 06:48:15;;;;;;;10.17;1.87;;;;;;;;;;5028596;28;20655;-70
2022/03/17 06:50:40;;;;;;;9.47;2.33;;;;;;;;;;5031020;28;20202;-68
2022/03/17 06:53:06;;;;;;;12.90;2.37;;;;;;;;;;5030832;28;20556;-68
2022/03/17 06:55:33;;;;;;;9.40;2.73;;;;;;;;;;5022944;28;20217;-68
2022/03/17 06:57:58;;;;;;;9.83;3.03;;;;;;;;;;5032449;28;20240;-68
2022/03/17 07:00:23;;;;;;;15.40;2.53;;;;;;;;;;5041420;28;20202;-70
2022/03/17 07:02:49;;;;;;;11.50;2.20;;;;;;;;;;5028591;28;20194;-68
2022/03/17 07:05:14;;;;;;;8.20;1.80;;;;;;;;;;5030494;28;20269;-68
2022/03/17 07:07:40;;;;;;;15.13;2.80;;;;;;;;;;5026914;28;20183;-71
2022/03/17 07:10:06;;;;;;;15.37;3.17;;;;;;;;;;5027653;28;20281;-68
2022/03/17 07:12:32;;;;;;;12.70;2.60;;;;;;;;;;5023021;28;20205;-68
2022/03/17 07:14:57;;;;;;;10.10;1.77;;;;;;;;;;5028666;28;20186;-68
2022/03/17 07:17:22;;;;;;;13.23;3.33;;;;;;;;;;5034153;28;20178;-70
2022/03/17 07:22:23;;;;;;;8.20;2.00;;;;;;;;;;5032674;28;20184;-68
2022/03/17 07:24:48;;;;;;;12.23;1.93;;;;;;;;;;5033286;28;20201;-68
2022/03/17 07:27:14;;;;;;;9.90;1.97;;;;;;;;;;5031048;28;20289;-68
2022/03/17 07:29:39;;;;;;;10.97;2.90;;;;;;;;;;5034861;28;20214;-68
2022/03/17 07:32:04;;;;;;;9.50;1.80;;;;;;;;;;5028183;28;20703;-68
2022/03/17 07:34:29;;;;;;;9.73;2.10;;;;;;;;;;5046385;28;20177;-68
2022/03/17 07:36:54;;;;;;;9.30;1.70;;;;;;;;;;5025403;28;20629;-68
2022/03/17 07:39:20;;;;;;;8.10;1.73;;;;;;;;;;5036261;28;20200;-68
2022/03/17 07:41:45;;;;;;;10.40;2.00;;;;;;;;;;5034223;28;20500;-70
2022/03/17 07:44:10;;;;;;;5.00;1.80;;;;;;;;;;5034267;28;20621;-68
2022/03/17 07:46:36;;;;;;;9.53;2.63;;;;;;;;;;5034548;28;20213;-68
2022/03/17 07:49:02;;;;;;;7.70;2.23;;;;;;;;;;5034295;28;20679;-68
2022/03/17 07:51:27;;;;;;;8.17;1.67;;;;;;;;;;5036755;28;20277;-68
2022/03/17 07:53:52;;;;;;;5.70;1.50;;;;;;;;;;5040438;28;20665;-68
2022/03/17 07:56:19;;;;;;;9.43;1.60;;;;;;;;;;5034878;28;20216;-68
2022/03/17 07:58:44;;;;;;;12.17;2.93;;;;;;;;;;5046203;28;20193;-68
2022/03/17 08:01:09;;;;;;;6.43;2.10;;;;;;;;;;5042555;28;20601;-68
2022/03/17 08:03:35;;;;;;;13.23;2.47;;;;;;;;;;5035323;28;20177;-68
2022/03/17 08:06:00;;;;;;;10.77;2.30;;;;;;;;;;5038694;28;20186;-70
2022/03/17 08:08:25;;;;;;;10.57;1.80;;;;;;;;;;5033966;28;20198;-68
2022/03/17 08:10:50;;;;;;;9.03;2.10;;;;;;;;;;5029220;28;20205;-68
2022/03/17 08:13:16;;;;;;;11.23;2.07;;;;;;;;;;5032599;28;20257;-68
2022/03/17 08:15:41;;;;;;;9.57;2.73;;;;;;;;;;5031794;28;20174;-70
2022/03/17 08:18:07;;;;;;;10.30;1.80;;;;;;;;;;5024103;28;20206;-72
2022/03/17 08:20:32;;;;;;;9.97;1.80;;;;;;;;;;5031368;28;20202;-70
2022/03/17 08:22:57;;;;;;;14.20;2.87;;;;;;;;;;5011696;28;20183;-67
2022/03/17 08:25:22;;;;;;;10.43;1.83;;;;;;;;;;5021629;28;20552;-68
2022/03/17 08:27:50;;;;;;;7.20;2.27;;;;;;;;;;5032030;28;20183;-68
2022/03/17 08:30:15;;;;;;;16.37;2.60;;;;;;;;;;5025963;22;20245;-66
2022/03/17 08:32:40;;;;;;;11.77;2.73;;;;;;;;;;5006821;28;20187;-67
2022/03/17 08:35:06;;;;;;;8.67;2.07;;;;;;;;;;5007151;28;20454;-66
2022/03/17 08:37:31;;;;;;;6.07;2.60;;;;;;;;;;5008327;28;20222;-67
2022/03/17 08:39:56;;;;;;;8.33;1.80;;;;;;;;;;5009067;28;20206;-66
2022/03/17 08:42:21;;;;;;;6.90;1.70;;;;;;;;;;5011526;28;20186;-67
2022/03/17 08:44:47;;;;;;;12.73;2.63;;;;;;;;;;5010232;28;20290;-67
2022/03/17 08:49:55;;;;;;;10.20;1.93;;;;;;;;;;5005617;28;20288;-67
2022/03/17 08:52:20;;;;;;;10.80;1.93;;;;;;;;;;5015973;28;20305;-67
2022/03/17 08:54:46;;;;;;;7.17;2.67;;;;;;;;;;5010451;28;20179;-67
2022/03/17 08:57:12;;;;;;;30.40;3.13;;;;;;;;;;5007791;28;20230;-67
2022/03/17 08:59:38;;;;;;;9.80;1.90;;;;;;;;;;5008134;28;20232;-66
2022/03/17 09:02:05;;;;;;;7.47;1.97;;;;;;;;;;5009194;28;20207;-67
2022/03/17 09:04:31;;;;;;;5.50;1.73;;;;;;;;;;5012610;28;20183;-67
2022/03/17 09:06:59;;;;;;;6.37;1.57;;;;;;;;;;5010473;28;20241;-68
2022/03/17 09:09:25;;;;;;;9.07;2.53;;;;;;;;;;5007944;28;20737;-66
2022/03/17 09:11:50;;;;;;;7.80;2.23;;;;;;;;;;5011793;28;20206;-66
2022/03/17 09:14:15;;;;;;;8.17;2.07;;;;;;;;;;5015865;28;20549;-66
2022/03/17 09:16:40;;;;;;;10.27;2.33;;;;;;;;;;5010229;28;20185;-67
2022/03/17 09:19:05;;;;;;;5.20;1.43;;;;;;;;;;5009731;28;20344;-66
2022/03/17 09:21:32;;;;;;;4.70;1.83;;;;;;;;;;5003590;28;20243;-66
2022/03/17 09:23:58;;;;;;;7.00;1.80;;;;;;;;;;5008524;28;20186;-67
2022/03/17 09:26:23;;;;;;;5.03;2.00;;;;;;;;;;5013408;28;20183;-67
2022/03/17 09:28:51;;;;;;;2.60;1.10;;;;;;;;;;5004582;28;20683;-65
2022/03/17 09:31:16;;;;;;;8.43;1.67;;;;;;;;;;5008640;28;20205;-66
2022/03/17 09:33:42;;;;;;;6.53;1.60;;;;;;;;;;5009404;28;20270;-67
2022/03/17 09:36:07;;;;;;;7.43;2.07;;;;;;;;;;5009713;28;20563;-67
2022/03/17 09:38:32;;;;;;;4.47;1.40;;;;;;;;;;5013260;28;20175;-66
2022/03/17 09:40:58;;;;;;;9.37;1.87;;;;;;;;;;5009692;28;20257;-67
2022/03/17 09:43:33;;;;;;;11.00;2.03;;;;;;;;;;5009402;28;20171;-67
2022/03/17 09:46:04;;;;;;;9.30;2.20;;;;;;;;;;5011812;28;20187;-66
2022/03/17 09:48:30;;;;;;;5.33;1.73;;;;;;;;;;5007133;28;20585;-66
2022/03/17 09:50:58;;;;;;;6.53;1.57;;;;;;;;;;5007169;28;20202;-66
2022/03/17 09:53:24;;;;;;;6.47;1.70;;;;;;;;;;5002797;28;20245;-67
2022/03/17 09:55:50;;;;;;;4.03;1.57;;;;;;;;;;5005507;28;20656;-66
2022/03/17 09:58:15;;;;;;;6.43;1.93;;;;;;;;;;4987786;28;20229;-67
2022/03/17 10:00:49;;;;;;;4.23;1.47;;;;;;;;;;5010282;28;20207;-67
2022/03/17 10:03:18;;;;;;;3.17;1.47;;;;;;;;;;5006274;28;20209;-66
2022/03/17 10:05:48;;;;;;;7.53;1.60;;;;;;;;;;5004850;28;20566;-66
2022/03/17 10:08:13;;;;;;;6.77;1.90;;;;;;;;;;5007012;28;20183;-66
2022/03/17 10:10:39;;;;;;;5.87;1.67;;;;;;;;;;5003457;28;20249;-67
2022/03/17 10:13:06;;;;;;;5.47;1.47;;;;;;;;;;5008330;28;20179;-66
2022/03/17 10:15:31;;;;;;;5.77;1.37;;;;;;;;;;5008745;28;20671;-67
2022/03/17 10:17:56;;;;;;;6.83;1.57;;;;;;;;;;5003291;28;20180;-67
2022/03/17 10:20:25;;;;;;;6.07;1.60;;;;;;;;;;5006640;28;20203;-65
2022/03/17 10:22:54;;;;;;;5.30;1.50;;;;;;;;;;4989524;28;20189;-67
2022/03/17 10:25:20;;;;;;;6.30;1.40;;;;;;;;;;5006562;28;20671;-66
2022/03/17 10:27:46;;;;;;;7.57;1.40;;;;;;;;;;5009756;28;20197;-67
2022/03/17 10:30:12;;;;;;;5.30;1.53;;;;;;;;;;4990311;28;20653;-66
2022/03/17 10:32:37;;;;;;;4.60;1.40;;;;;;;;;;5009514;28;20667;-66
2022/03/17 10:35:03;;;;;;;5.33;1.40;;;;;;;;;;4991591;28;20286;-67
2022/03/17 10:37:30;;;;;;;7.68;1.88;;;;;;;;;;5006251;28;20608;-67
2022/03/17 10:39:59;;;;;;;11.73;2.03;;;;;;;;;;5008619;28;20202;-67
2022/03/17 10:42:28;;;;;;;4.47;2.13;;;;;;;;;;5008084;28;20175;-66
2022/03/17 10:44:55;;;;;;;10.40;2.13;;;;;;;;;;5010903;28;20186;-67
2022/03/17 10:47:24;;;;;;;3.70;1.70;;;;;;;;;;5007289;28;20182;-66
2022/03/17 10:50:01;;;;;;;5.13;1.70;;;;;;;;;;5008760;28;20600;-67
2022/03/17 10:52:41;;;;;;;7.65;1.88;;;;;;;;;;5004536;28;20486;-67
2022/03/17 10:55:10;;;;;;;5.53;2.10;;;;;;;;;;5006859;28;20167;-65
2022/03/17 10:57:35;;;;;;;7.25;1.90;;;;;;;;;;5007361;28;20190;-67
2022/03/17 11:00:00;;;;;;;9.15;2.13;;;;;;;;;;5007914;28;20252;-66
2022/03/17 11:02:25;;;;;;;5.75;2.17;;;;;;;;;;5009806;28;21883;-66
2022/03/17 11:04:51;;;;;;;6.53;1.90;;;;;;;;;;5007180;28;20195;-66
2022/03/17 11:07:17;;;;;;;7.18;3.50;;;;;;;;;;5005550;28;20190;-67
2022/03/17 11:09:43;;;;;;;6.45;3.00;;;;;;;;;;5008817;28;20199;-67
2022/03/17 11:12:09;;;;;;;6.57;2.00;;;;;;;;;;5007867;28;20225;-66
2022/03/17 11:14:44;;;;;;;6.47;2.30;;;;;;;;;;5005753;28;20209;-66
2022/03/17 11:17:11;;;;;;;7.13;1.88;;;;;;;;;;5005963;28;20170;-66
2022/03/17 11:19:36;;;;;;;8.93;2.40;;;;;;;;;;4994436;28;20794;-66
2022/03/17 11:22:08;;;;;;;6.68;2.13;;;;;;;;;;5009235;28;20261;-66
2022/03/17 11:24:33;;;;;;;6.60;2.97;;;;;;;;;;4987354;28;20531;-67
2022/03/17 11:27:14;;;;;;;7.38;2.40;;;;;;;;;;5008132;28;20194;-67
2022/03/17 11:29:40;;;;;;;6.80;2.13;;;;;;;;;;5009407;28;20207;-67
2022/03/17 11:32:08;;;;;;;7.93;2.17;;;;;;;;;;5010054;28;20203;-67
2022/03/17 11:34:37;;;;;;;6.75;2.15;;;;;;;;;;5008573;28;20168;-66
2022/03/17 11:37:16;;;;;;;8.90;2.08;;;;;;;;;;5007045;28;20262;-66
2022/03/17 11:39:57;;;;;;;6.38;2.20;;;;;;;;;;5008154;28;20199;-67
2022/03/17 11:42:37;;;;;;;6.22;2.03;;;;;;;;;;5003303;28;20257;-66
2022/03/17 11:45:09;;;;;;;5.63;2.28;;;;;;;;;;5008894;28;20190;-67
2022/03/17 11:47:36;;;;;;;8.18;2.67;;;;;;;;;;5004509;28;20179;-67
2022/03/17 11:50:20;;;;;;;4.82;2.03;;;;;;;;;;5004862;28;20282;-67
2022/03/17 11:52:49;;;;;;;6.43;1.83;;;;;;;;;;5006175;28;20225;-67
2022/03/17 11:55:31;;;;;;;3.58;1.52;;;;;;;;;;5010685;28;20257;-67
2022/03/17 11:58:15;;;;;;;5.40;2.17;;;;;;;;;;5008348;28;20179;-67
2022/03/17 12:00:44;;;;;;;4.13;1.77;;;;;;;;;;5007516;28;20697;-66
2022/03/17 12:03:10;;;;;;;9.82;2.05;;;;;;;;;;5007428;28;20649;-67
2022/03/17 12:05:39;;;;;;;4.25;1.73;;;;;;;;;;5001573;28;20180;-67
2022/03/17 12:08:04;;;;;;;5.57;2.03;;;;;;;;;;5012354;28;20241;-67
2022/03/17 12:10:49;;;;;;;6.15;1.95;;;;;;;;;;5022264;28;20190;-66
2022/03/17 12:13:24;;;;;;;2.97;1.05;;;;;;;;;;5009484;28;20238;-66
2022/03/17 12:15:55;;;;;;;5.05;1.58;;;;;;;;;;5013186;28;20178;-66
2022/03/17 12:18:20;;;;;;;2.47;1.52;;;;;;;;;;5014700;28;20171;-67
2022/03/17 12:20:46;;;;;;;7.90;1.50;;;;;;;;;;5010199;28;20213;-65
2022/03/17 12:23:30;;;;;;;4.55;1.58;;;;;;;;;;5013472;28;20523;-65
2022/03/17 12:26:03;;;;;;;8.77;1.48;;;;;;;;;;5012673;28;20194;-67
2022/03/17 12:28:29;;;;;;;5.32;1.90;;;;;;;;;;5014318;28;20186;-66
2022/03/17 12:30:55;;;;;;;4.93;1.10;;;;;;;;;;5013545;28;20219;-66
2022/03/17 12:33:20;;;;;;;4.65;1.00;;;;;;;;;;5010305;28;20711;-65
2022/03/17 12:35:46;;;;;;;3.78;1.10;;;;;;;;;;5008326;28;20217;-65
2022/03/17 12:38:12;;;;;;;5.68;1.30;;;;;;;;;;5011635;28;20270;-66
2022/03/17 12:40:44;;;;;;;4.95;1.25;;;;;;;;;;5011860;28;20202;-66
2022/03/17 12:43:11;;;;;;;5.50;1.50;;;;;;;;;;5010239;28;20647;-66
2022/03/17 12:45:36;;;;;;;5.50;1.50;;;;;;;;;;5009344;28;20187;-65
2022/03/17 12:48:02;;;;;;;3.63;1.40;;;;;;;;;;5008465;28;20175;-66
2022/03/17 12:50:29;;;;;;;6.85;1.65;;;;;;;;;;5006024;28;20588;-66
2022/03/17 12:52:54;;;;;;;3.95;1.27;;;;;;;;;;5008152;28;20668;-66
2022/03/17 12:55:21;;;;;;;5.88;1.10;;;;;;;;;;5011577;28;20183;-66
2022/03/17 12:57:47;;;;;;;2.95;1.52;;;;;;;;;;5010606;28;20265;-66
2022/03/17 13:00:13;;;;;;;4.00;1.52;;;;;;;;;;5010991;28;20195;-66
2022/03/17 13:02:46;;;;;;;3.20;1.40;;;;;;;;;;5010099;28;20191;-66
2022/03/17 13:07:57;;;;;;;5.38;1.48;;;;;;;;;;5010922;28;20194;-67
2022/03/17 13:10:26;;;;;;;3.13;1.00;;;;;;;;;;5009402;28;20214;-65
2022/03/17 13:15:35;;;;;;;7.32;1.15;;;;;;;;;;5007099;28;20197;-66
2022/03/17 13:18:05;;;;;;;7.07;1.77;;;;;;;;;;5010405;28;20183;-66
2022/03/17 13:20:30;;;;;;;3.92;1.60;;;;;;;;;;5009194;28;20202;-66
2022/03/17 13:23:00;;;;;;;5.90;1.23;;;;;;;;;;5010357;28;20182;-66
2022/03/17 13:25:25;;;;;;;4.13;1.02;;;;;;;;;;5008549;28;20631;-65
2022/03/17 13:27:54;;;;;;;7.40;1.20;;;;;;;;;;5009035;28;20225;-66
2022/03/17 13:30:20;;;;;;;3.58;1.33;;;;;;;;;;5007188;28;20237;-65
2022/03/17 13:32:56;;;;;;;5.10;1.33;;;;;;;;;;5008893;28;20211;-66
2022/03/17 13:35:21;;;;;;;3.80;1.08;;;;;;;;;;5009043;28;20543;-66
2022/03/17 13:37:47;;;;;;;4.28;1.38;;;;;;;;;;5009105;28;20712;-65
2022/03/17 13:40:17;;;;;;;4.03;0.93;;;;;;;;;;5010560;28;20747;-65
2022/03/17 13:43:08;;;;;;;4.63;1.38;;;;;;;;;;5009046;28;20224;-66
2022/03/17 13:45:35;;;;;;;2.33;0.80;;;;;;;;;;5003705;28;20568;-66
2022/03/17 13:48:04;;;;;;;3.60;0.85;;;;;;;;;;5006804;28;20194;-66
2022/03/17 13:50:30;;;;;;;4.05;1.20;;;;;;;;;;5008191;28;20264;-65
2022/03/17 13:53:07;;;;;;;3.47;1.05;;;;;;;;;;5009086;28;20675;-65
2022/03/17 13:56:05;;;;;;;4.28;1.02;;;;;;;;;;5005114;28;20671;-67
2022/03/17 13:58:31;;;;;;;5.82;0.90;;;;;;;;;;4964540;28;20248;-66
2022/03/17 14:01:06;;;;;;;4.65;1.52;;;;;;;;;;5009469;28;20674;-66
2022/03/17 14:03:32;;;;;;;4.68;1.20;;;;;;;;;;5012297;28;20178;-66
2022/03/17 14:06:01;;;;;;;5.43;0.88;;;;;;;;;;5015231;28;20198;-66
2022/03/17 14:08:27;;;;;;;4.57;1.33;;;;;;;;;;5020100;28;20189;-67
2022/03/17 14:10:52;;;;;;;3.00;1.20;;;;;;;;;;5013336;28;20210;-66
2022/03/17 14:13:20;;;;;;;4.55;1.20;;;;;;;;;;5008219;28;20219;-66
2022/03/17 14:15:46;;;;;;;2.95;0.90;;;;;;;;;;5006523;28;20198;-66
2022/03/17 14:18:11;;;;;;;5.60;1.13;;;;;;;;;;5009427;28;20605;-66
2022/03/17 14:20:37;;;;;;;4.28;0.90;;;;;;;;;;5008234;28;20234;-66
2022/03/17 14:25:46;;;;;;;5.75;1.23;;;;;;;;;;5005936;28;20439;-66
2022/03/17 14:28:11;;;;;;;2.03;0.95;;;;;;;;;;5008667;28;20676;-66
2022/03/17 14:30:37;;;;;;;3.92;0.98;;;;;;;;;;4991932;28;20206;-67
2022/03/17 14:33:02;;;;;;;4.65;1.05;;;;;;;;;;5014830;28;20174;-66
2022/03/17 14:35:27;;;;;;;2.60;0.70;;;;;;;;;;4995897;28;20203;-67
2022/03/17 14:37:52;;;;;;;4.28;1.05;;;;;;;;;;5006839;28;20187;-66
2022/03/17 14:40:18;;;;;;;4.95;1.00;;;;;;;;;;5010783;28;20195;-67
2022/03/17 14:42:44;;;;;;;5.28;1.30;;;;;;;;;;5005008;28;20624;-66
2022/03/17 14:45:09;;;;;;;5.45;1.10;;;;;;;;;;5009375;28;20656;-67
2022/03/17 14:47:34;;;;;;;10.13;1.88;;;;;;;;;;5005345;28;20190;-67
2022/03/17 14:50:00;;;;;;;4.03;0.80;;;;;;;;;;5007683;28;20323;-66
2022/03/17 14:52:25;;;;;;;4.13;0.73;;;;;;;;;;4989527;28;20207;-67
2022/03/17 14:54:50;;;;;;;3.15;1.15;;;;;;;;;;5008121;28;20175;-66
2022/03/17 14:57:15;;;;;;;3.55;1.08;;;;;;;;;;5004009;28;20717;-67